Time;durP1;ratioP1;P1;durP2;ratioP2;P2;SDS_P1;SDS_P2;PMS_P1;PMS_P2;Temp;Humidity;BMP_temperature;BMP_pressure;BME280_temperature;BME280_humidity;BME280_pressure;Samples;Min_cycle;Max_cycle;Signal;HPM_P1;HPM_P2
2021/08/17 00:00:06;;;;;;;5.13;2.58;;;;;;;14.46;65.69;100447.53;693557;28;43696;-66
2021/08/17 00:00:27;;;;;;;6.10;2.95;;;;;;;14.44;65.79;100454.25;694492;28;44852;-67
2021/08/17 00:00:48;;;;;;;5.57;2.83;;;;;;;14.43;65.95;100439.81;695426;28;21039;-67
2021/08/17 00:01:10;;;;;;;3.35;2.53;;;;;;;14.42;66.02;100452.56;694709;28;44397;-67
2021/08/17 00:01:31;;;;;;;5.68;2.30;;;;;;;14.42;65.95;100446.31;694452;28;45370;-67
2021/08/17 00:01:52;;;;;;;3.33;2.30;;;;;;;14.42;66.04;100452.56;696105;28;13014;-67
2021/08/17 00:02:13;;;;;;;3.53;2.40;;;;;;;14.41;66.15;100437.28;695442;28;1785;-67
2021/08/17 00:02:35;;;;;;;4.20;2.70;;;;;;;14.41;66.16;100436.47;695794;28;22424;-67
2021/08/17 00:02:57;;;;;;;4.13;2.63;;;;;;;14.41;66.03;100447.34;696592;28;950;-67
2021/08/17 00:03:18;;;;;;;5.32;2.38;;;;;;;14.40;65.84;100445.66;693435;28;47213;-66
2021/08/17 00:03:39;;;;;;;4.93;2.50;;;;;;;14.39;65.93;100439.41;695645;28;5407;-68
2021/08/17 00:04:01;;;;;;;6.47;2.50;;;;;;;14.40;66.20;100440.22;695332;28;22418;-66
2021/08/17 00:04:23;;;;;;;6.53;2.50;;;;;;;14.40;66.19;100451.09;694487;28;38275;-66
2021/08/17 00:04:44;;;;;;;4.43;2.40;;;;;;;14.39;65.88;100444.00;694943;28;43953;-67
2021/08/17 00:05:06;;;;;;;3.88;2.42;;;;;;;14.38;65.85;100437.72;695379;28;22490;-67
2021/08/17 00:05:27;;;;;;;4.45;2.70;;;;;;;14.36;66.01;100439.81;693687;28;70318;-67
2021/08/17 00:05:50;;;;;;;5.45;2.45;;;;;;;14.37;66.14;100443.34;695708;28;23483;-66
2021/08/17 00:06:11;;;;;;;4.82;2.50;;;;;;;14.37;66.37;100448.78;694682;28;46286;-67
2021/08/17 00:06:32;;;;;;;4.78;2.40;;;;;;;14.34;66.36;100431.03;695872;28;12406;-66
2021/08/17 00:06:53;;;;;;;6.43;2.50;;;;;;;14.36;66.31;100447.97;695747;28;22389;-67
2021/08/17 00:07:16;;;;;;;4.30;2.35;;;;;;;14.34;66.28;100439.19;696331;28;5085;-66
2021/08/17 00:07:37;;;;;;;3.50;2.30;;;;;;;14.33;66.13;100437.50;693390;28;69520;-64
2021/08/17 00:07:59;;;;;;;4.53;2.45;;;;;;;14.34;66.23;100433.75;695525;28;23323;-66
2021/08/17 00:08:20;;;;;;;5.28;2.70;;;;;;;14.34;66.05;100438.34;693711;28;46346;-68
2021/08/17 00:08:42;;;;;;;4.65;2.67;;;;;;;14.33;66.07;100436.69;695626;28;22375;-67
2021/08/17 00:09:03;;;;;;;4.03;2.60;;;;;;;14.31;66.29;100439.63;694427;28;29686;-67
2021/08/17 00:09:24;;;;;;;3.15;2.30;;;;;;;14.32;65.99;100445.88;690250;28;22166;-67
2021/08/17 00:09:45;;;;;;;4.18;2.30;;;;;;;14.31;66.12;100438.75;688755;28;16780;-67
2021/08/17 00:10:08;;;;;;;3.00;2.35;;;;;;;14.30;66.13;100440.66;688533;28;22382;-66
2021/08/17 00:10:29;;;;;;;3.30;2.20;;;;;;;14.31;66.13;100442.31;687188;28;66128;-65
2021/08/17 00:10:51;;;;;;;2.95;2.45;;;;;;;14.31;65.72;100444.19;689195;28;22390;-67
2021/08/17 00:11:13;;;;;;;4.63;2.60;;;;;;;14.32;66.21;100441.25;691695;28;17811;-67
2021/08/17 00:11:35;;;;;;;4.15;2.50;;;;;;;14.32;66.09;100445.88;692574;28;67159;-67
2021/08/17 00:11:56;;;;;;;2.53;2.33;;;;;;;14.32;66.35;100443.97;694558;28;45382;-67
2021/08/17 00:12:17;;;;;;;6.35;2.60;;;;;;;14.31;66.31;100445.03;695193;28;22428;-67
2021/08/17 00:12:39;;;;;;;7.15;2.70;;;;;;;14.31;66.13;100446.91;695755;28;22469;-67
2021/08/17 00:13:00;;;;;;;5.80;2.50;;;;;;;14.30;66.10;100437.09;694688;28;41464;-67
2021/08/17 00:13:21;;;;;;;4.80;2.42;;;;;;;14.30;66.10;100446.06;694805;28;22492;-67
2021/08/17 00:13:43;;;;;;;4.43;2.30;;;;;;;14.29;66.36;100436.25;695319;28;21244;-66
2021/08/17 00:14:04;;;;;;;4.32;2.80;;;;;;;14.30;66.38;100437.09;694562;28;34438;-66
2021/08/17 00:14:26;;;;;;;4.15;2.35;;;;;;;14.30;66.31;100439.81;695639;28;22308;-67
2021/08/17 00:14:48;;;;;;;4.65;2.38;;;;;;;14.29;66.29;100436.25;695997;28;5396;-67
2021/08/17 00:15:10;;;;;;;4.43;2.40;;;;;;;14.32;66.34;100441.25;692322;28;44287;-67
2021/08/17 00:15:34;;;;;;;4.05;2.38;;;;;;;14.31;66.00;100431.47;692442;28;67499;-67
2021/08/17 00:15:55;;;;;;;4.30;2.47;;;;;;;14.31;66.27;100439.63;691767;28;92309;-67
2021/08/17 00:16:16;;;;;;;4.85;2.40;;;;;;;14.30;66.13;100437.94;694071;28;21455;-67
2021/08/17 00:16:38;;;;;;;8.10;2.70;;;;;;;14.32;66.11;100435.81;694017;28;23345;-67
2021/08/17 00:16:59;;;;;;;6.93;2.90;;;;;;;14.33;66.38;100431.25;693838;28;46354;-67
2021/08/17 00:17:20;;;;;;;4.18;2.60;;;;;;;14.33;65.92;100436.69;695905;28;909;-65
2021/08/17 00:17:41;;;;;;;4.25;2.47;;;;;;;14.35;66.05;100434.59;695086;28;22403;-67
2021/08/17 00:18:04;;;;;;;4.85;2.50;;;;;;;14.34;66.07;100444.63;695547;28;21556;-66
2021/08/17 00:18:25;;;;;;;3.97;2.50;;;;;;;14.34;65.92;100428.31;693924;28;35440;-66
2021/08/17 00:18:46;;;;;;;7.53;2.63;;;;;;;14.34;66.14;100432.91;696241;28;1331;-66
2021/08/17 00:19:08;;;;;;;5.47;2.60;;;;;;;14.34;66.01;100428.31;695575;28;24266;-67
2021/08/17 00:19:30;;;;;;;5.05;2.30;;;;;;;14.35;65.84;100426.44;695261;28;22546;-67
2021/08/17 00:19:51;;;;;;;4.70;2.35;;;;;;;14.36;65.83;100436.28;695921;28;12538;-66
2021/08/17 00:20:13;;;;;;;4.25;2.30;;;;;;;14.36;66.04;100422.69;695150;28;20233;-67
2021/08/17 00:20:34;;;;;;;3.53;2.50;;;;;;;14.36;65.69;100425.41;694600;28;46546;-66
2021/08/17 00:20:56;;;;;;;3.78;2.25;;;;;;;14.36;66.00;100437.09;695743;28;22509;-65
2021/08/17 00:21:17;;;;;;;3.75;2.60;;;;;;;14.36;65.91;100420.78;694801;28;44510;-66
2021/08/17 00:21:38;;;;;;;3.08;2.50;;;;;;;14.35;65.62;100423.72;694410;28;22479;-66
2021/08/17 00:21:59;;;;;;;5.25;2.58;;;;;;;14.35;65.28;100435.41;695558;28;22416;-66
2021/08/17 00:22:22;;;;;;;3.42;2.25;;;;;;;14.35;65.43;100429.97;695458;28;23440;-67
2021/08/17 00:22:43;;;;;;;4.82;2.90;;;;;;;14.37;65.41;100427.06;692940;28;93059;-67
2021/08/17 00:23:06;;;;;;;7.90;2.70;;;;;;;14.37;65.56;100419.75;695378;28;18136;-65
2021/08/17 00:23:28;;;;;;;8.13;2.60;;;;;;;14.38;65.24;100434.16;694916;28;46340;-66
2021/08/17 00:23:49;;;;;;;7.63;2.60;;;;;;;14.37;65.29;100425.19;694505;28;46260;-65
2021/08/17 00:24:10;;;;;;;5.43;2.40;;;;;;;14.38;65.30;100426.84;695539;28;23426;-67
2021/08/17 00:24:33;;;;;;;6.78;2.50;;;;;;;14.39;65.17;100427.69;695615;28;21199;-66
2021/08/17 00:24:54;;;;;;;6.60;2.60;;;;;;;14.39;64.94;100423.09;693548;28;59217;-67
2021/08/17 00:25:16;;;;;;;2.70;2.30;;;;;;;14.39;64.85;100424.97;694810;28;39595;-67
2021/08/17 00:25:42;;;;;;;4.63;2.38;;;;;;;14.40;64.94;100423.91;694705;28;44403;-67
2021/08/17 00:26:04;;;;;;;6.35;2.40;;;;;;;14.40;65.08;100421.19;691633;28;138243;-66
2021/08/17 00:26:27;;;;;;;4.22;2.40;;;;;;;14.39;64.78;100422.28;694314;28;46401;-66
2021/08/17 00:26:48;;;;;;;3.10;2.35;;;;;;;14.39;64.70;100441.28;693559;28;69424;-68
2021/08/17 00:27:09;;;;;;;4.40;2.30;;;;;;;14.39;64.83;100417.66;695317;28;16540;-66
2021/08/17 00:27:31;;;;;;;3.90;2.20;;;;;;;14.38;64.73;100415.97;695263;28;23422;-67
2021/08/17 00:27:52;;;;;;;5.80;2.28;;;;;;;14.39;64.79;100416.84;693631;28;45261;-66
2021/08/17 00:28:13;;;;;;;3.08;2.22;;;;;;;14.36;64.48;100409.94;695377;28;21559;-67
2021/08/17 00:28:34;;;;;;;4.22;2.58;;;;;;;14.38;64.64;100424.13;694247;28;22394;-67
2021/08/17 00:28:55;;;;;;;5.05;2.80;;;;;;;14.39;64.64;100414.13;695592;28;22441;-66
2021/08/17 00:29:17;;;;;;;4.75;2.65;;;;;;;14.38;64.28;100421.41;694934;28;22509;-67
2021/08/17 00:29:38;;;;;;;5.18;2.60;;;;;;;14.34;64.28;100425.59;694341;28;46313;-67
2021/08/17 00:29:59;;;;;;;5.40;2.40;;;;;;;14.39;64.45;100414.94;695518;28;21532;-66
2021/08/17 00:30:20;;;;;;;6.85;2.60;;;;;;;14.40;64.50;100423.91;695578;28;23102;-67
2021/08/17 00:30:42;;;;;;;5.05;2.53;;;;;;;14.41;64.46;100414.72;695879;28;15892;-67
2021/08/17 00:31:03;;;;;;;5.43;2.60;;;;;;;14.41;64.35;100417.44;694551;28;46481;-66
2021/08/17 00:31:25;;;;;;;4.68;2.75;;;;;;;14.42;64.32;100419.13;696179;28;918;-67
2021/08/17 00:31:46;;;;;;;5.03;2.83;;;;;;;14.41;64.14;100410.13;695476;28;23549;-67
2021/08/17 00:32:07;;;;;;;5.00;2.38;;;;;;;14.42;64.01;100411.81;695558;28;22477;-67
2021/08/17 00:32:31;;;;;;;3.83;2.30;;;;;;;14.42;63.93;100416.41;696344;28;993;-67
2021/08/17 00:32:52;;;;;;;5.28;2.40;;;;;;;14.41;63.82;100423.72;692923;28;86438;-67
2021/08/17 00:33:13;;;;;;;7.57;2.47;;;;;;;14.40;63.83;100411.19;695981;28;1031;-67
2021/08/17 00:33:35;;;;;;;7.93;2.50;;;;;;;14.40;63.88;100413.06;696182;28;1834;-65
2021/08/17 00:34:00;;;;;;;6.95;2.90;;;;;;;14.40;64.20;100424.78;695255;28;15259;-66
2021/08/17 00:34:22;;;;;;;3.55;2.50;;;;;;;14.41;63.94;100428.31;692991;28;92204;-67
2021/08/17 00:34:43;;;;;;;3.53;2.20;;;;;;;14.36;63.61;100415.38;696146;28;6883;-66
2021/08/17 00:35:04;;;;;;;4.90;2.47;;;;;;;14.38;64.08;100409.72;695543;28;13442;-67
2021/08/17 00:35:26;;;;;;;3.50;2.58;;;;;;;14.40;64.06;100407.63;695967;28;1693;-66
2021/08/17 00:35:47;;;;;;;4.60;2.80;;;;;;;14.41;63.99;100412.00;694683;28;45607;-66
2021/08/17 00:36:09;;;;;;;4.53;2.65;;;;;;;14.39;63.93;100414.94;695379;28;22393;-67
2021/08/17 00:36:31;;;;;;;4.05;2.38;;;;;;;14.40;64.14;100408.47;695711;28;2035;-67
2021/08/17 00:36:53;;;;;;;3.75;2.50;;;;;;;14.44;64.20;100416.19;694767;28;16351;-67
2021/08/17 00:37:16;;;;;;;4.70;2.40;;;;;;;14.40;63.94;100408.47;694828;28;38145;-67
2021/08/17 00:37:37;;;;;;;4.43;2.22;;;;;;;14.44;64.07;100417.03;693016;28;44137;-65
2021/08/17 00:38:01;;;;;;;4.20;2.33;;;;;;;14.46;63.56;100414.09;695901;28;12667;-66
2021/08/17 00:38:22;;;;;;;5.22;2.60;;;;;;;14.45;63.69;100415.13;692533;28;82979;-67
2021/08/17 00:38:43;;;;;;;6.00;2.58;;;;;;;14.43;63.83;100404.47;693960;28;46388;-66
2021/08/17 00:39:04;;;;;;;6.47;2.80;;;;;;;14.45;63.79;100409.69;695314;28;13718;-66
2021/08/17 00:39:27;;;;;;;6.65;2.65;;;;;;;14.46;63.58;100411.38;696098;28;4109;-65
2021/08/17 00:39:48;;;;;;;4.72;2.45;;;;;;;14.46;63.41;100419.53;694782;28;45246;-67
2021/08/17 00:40:10;;;;;;;6.88;3.08;;;;;;;14.45;63.46;100423.28;696095;28;2457;-67
2021/08/17 00:40:32;;;;;;;4.07;2.65;;;;;;;14.43;63.28;100415.34;694765;28;40765;-67
2021/08/17 00:40:54;;;;;;;3.85;2.40;;;;;;;14.44;63.30;100422.47;693831;28;69464;-67
2021/08/17 00:41:15;;;;;;;3.15;2.10;;;;;;;14.42;63.40;100414.53;695729;28;18760;-67
2021/08/17 00:41:39;;;;;;;5.30;2.38;;;;;;;14.40;63.63;100416.63;695282;28;24363;-67
2021/08/17 00:42:03;;;;;;;5.57;2.72;;;;;;;14.39;63.77;100417.66;692541;28;90992;-67
2021/08/17 00:42:25;;;;;;;3.72;2.40;;;;;;;14.39;63.89;100422.28;692528;28;92067;-67
2021/08/17 00:42:47;;;;;;;4.70;2.42;;;;;;;14.35;63.91;100408.25;694357;28;46762;-65
2021/08/17 00:43:10;;;;;;;5.32;2.90;;;;;;;14.36;63.62;100407.22;694334;28;47044;-67
2021/08/17 00:43:31;;;;;;;3.80;2.50;;;;;;;14.37;64.04;100413.47;692974;28;67251;-67
2021/08/17 00:43:54;;;;;;;3.85;2.58;;;;;;;14.36;63.85;100409.94;695577;28;23647;-67
2021/08/17 00:44:20;;;;;;;5.63;2.60;;;;;;;14.37;63.76;100408.88;693798;28;66847;-68
2021/08/17 00:44:42;;;;;;;3.08;2.30;;;;;;;14.37;64.16;100399.88;694350;28;61901;-67
2021/08/17 00:45:05;;;;;;;3.58;2.60;;;;;;;14.39;63.79;100412.22;695565;28;23397;-67
2021/08/17 00:45:27;;;;;;;5.40;2.90;;;;;;;14.40;64.19;100411.19;694209;28;49814;-66
2021/08/17 00:45:49;;;;;;;4.65;2.38;;;;;;;14.41;64.13;100417.44;694525;28;44475;-67
2021/08/17 00:46:10;;;;;;;3.33;2.30;;;;;;;14.39;63.93;100433.97;694864;28;44434;-67
2021/08/17 00:46:32;;;;;;;3.58;2.33;;;;;;;14.41;63.72;100407.41;695333;28;23427;-67
2021/08/17 00:46:55;;;;;;;5.53;2.95;;;;;;;14.42;63.73;100430.00;695755;28;1722;-66
2021/08/17 00:47:16;;;;;;;4.85;2.80;;;;;;;14.41;63.72;100436.47;694275;28;47983;-65
2021/08/17 00:47:37;;;;;;;5.80;2.72;;;;;;;14.41;63.41;100414.72;695622;28;906;-71
2021/08/17 00:47:59;;;;;;;6.57;2.60;;;;;;;14.41;63.74;100414.72;695508;28;21233;-66
2021/08/17 00:48:21;;;;;;;3.95;2.50;;;;;;;14.41;63.58;100414.72;695634;28;1186;-65
2021/08/17 00:48:42;;;;;;;3.70;2.50;;;;;;;14.39;63.53;100420.38;695148;28;20280;-65
2021/08/17 00:49:04;;;;;;;4.72;2.42;;;;;;;14.35;63.78;100415.56;695960;28;965;-64
2021/08/17 00:49:27;;;;;;;5.38;2.47;;;;;;;14.35;63.78;100419.09;694926;28;11521;-64
2021/08/17 00:49:48;;;;;;;3.30;2.33;;;;;;;14.36;63.76;100425.41;696378;28;998;-68
2021/08/17 00:50:09;;;;;;;3.50;2.53;;;;;;;14.36;63.99;100415.38;695556;28;21554;-64
2021/08/17 00:50:31;;;;;;;3.83;2.40;;;;;;;14.35;63.64;100401.97;694433;28;45235;-65
2021/08/17 00:50:53;;;;;;;4.18;2.55;;;;;;;14.35;63.77;100418.28;694627;28;43169;-66
2021/08/17 00:51:14;;;;;;;5.97;2.88;;;;;;;14.36;63.79;100422.69;694869;28;39759;-65
2021/08/17 00:51:36;;;;;;;4.05;2.60;;;;;;;14.35;64.03;100410.97;695498;28;21530;-64
2021/08/17 00:51:59;;;;;;;3.75;2.67;;;;;;;14.36;63.96;100407.22;694546;28;21474;-65
2021/08/17 00:52:21;;;;;;;4.78;2.75;;;;;;;14.36;63.71;100415.38;695738;28;14925;-65
2021/08/17 00:52:43;;;;;;;5.32;2.50;;;;;;;14.38;63.74;100409.72;693572;28;46439;-64
2021/08/17 00:53:04;;;;;;;3.88;2.40;;;;;;;14.38;64.08;100412.44;697666;28;22361;-66
2021/08/17 00:53:27;;;;;;;5.07;2.38;;;;;;;14.39;63.85;100416.84;698651;28;1340;-66
2021/08/17 00:53:52;;;;;;;4.30;2.40;;;;;;;14.38;63.80;100404.28;696199;28;50233;-65
2021/08/17 00:54:13;;;;;;;5.73;2.30;;;;;;;14.37;63.75;100417.03;694701;28;115024;-65
2021/08/17 00:54:34;;;;;;;4.13;2.30;;;;;;;14.37;63.79;100422.47;696961;28;45395;-65
2021/08/17 00:54:57;;;;;;;5.05;2.35;;;;;;;14.38;63.78;100426.84;697086;28;16069;-68
2021/08/17 00:55:18;;;;;;;5.55;2.40;;;;;;;14.39;63.90;100409.50;696000;28;1396;-67
2021/08/17 00:55:39;;;;;;;3.75;2.40;;;;;;;14.39;63.64;100409.50;695493;28;23451;-64
2021/08/17 00:56:01;;;;;;;3.58;2.40;;;;;;;14.39;63.63;100405.97;695700;28;22288;-66
2021/08/17 00:56:22;;;;;;;4.07;2.40;;;;;;;14.42;63.90;100419.13;694619;28;39317;-67
2021/08/17 00:56:46;;;;;;;2.97;2.58;;;;;;;14.41;63.68;100410.13;695449;28;23363;-67
2021/08/17 00:57:07;;;;;;;4.85;2.60;;;;;;;14.42;63.68;100410.97;693169;28;69300;-65
2021/08/17 00:57:28;;;;;;;5.13;2.60;;;;;;;14.40;63.63;100405.75;692007;28;22500;-69
2021/08/17 00:57:50;;;;;;;5.28;2.70;;;;;;;14.42;63.59;100400.94;691719;28;23484;-65
2021/08/17 00:58:11;;;;;;;3.67;2.40;;;;;;;14.41;63.78;100406.59;692035;28;45258;-65
2021/08/17 00:58:32;;;;;;;6.13;2.58;;;;;;;14.44;63.75;100410.78;695112;28;23482;-68
2021/08/17 00:58:53;;;;;;;5.53;2.80;;;;;;;14.44;64.03;100405.34;695380;28;22388;-65
2021/08/17 00:59:16;;;;;;;6.55;2.85;;;;;;;14.45;64.02;100417.84;696138;28;858;-66
2021/08/17 00:59:37;;;;;;;5.85;2.67;;;;;;;14.46;64.10;100416.81;693178;28;67426;-65
2021/08/17 00:59:58;;;;;;;4.57;2.60;;;;;;;14.46;63.68;100412.22;695296;28;21076;-68
2021/08/17 01:00:19;;;;;;;5.68;2.67;;;;;;;14.46;63.79;100414.09;694557;28;22474;-65
2021/08/17 01:00:41;;;;;;;4.25;2.80;;;;;;;14.44;63.86;100425.19;695337;28;12926;-66
2021/08/17 01:01:02;;;;;;;5.75;2.90;;;;;;;14.43;63.88;100409.91;695068;28;28389;-67
2021/08/17 01:01:23;;;;;;;5.93;2.63;;;;;;;14.44;63.87;100413.50;695724;28;17089;-65
2021/08/17 01:01:44;;;;;;;3.67;2.47;;;;;;;14.42;63.73;100425.38;695043;28;35314;-64
2021/08/17 01:02:07;;;;;;;5.10;2.70;;;;;;;14.41;63.61;100403.88;694294;28;41548;-65
2021/08/17 01:02:28;;;;;;;5.55;2.60;;;;;;;14.42;63.75;100394.69;694652;28;23437;-65
2021/08/17 01:02:49;;;;;;;6.78;2.58;;;;;;;14.42;63.62;100409.09;694982;28;23459;-65
2021/08/17 01:03:11;;;;;;;6.80;2.58;;;;;;;14.44;63.51;100400.72;694983;28;21471;-68
2021/08/17 01:03:32;;;;;;;5.53;2.72;;;;;;;14.42;63.44;100392.78;693437;28;45307;-70
2021/08/17 01:03:53;;;;;;;5.30;2.80;;;;;;;14.42;63.52;100395.50;694798;28;22437;-68
2021/08/17 01:04:15;;;;;;;6.05;2.60;;;;;;;14.45;63.59;100406.97;692469;28;22403;-68
2021/08/17 01:04:41;;;;;;;3.38;2.20;;;;;;;14.45;63.86;100398.84;694107;28;60042;-66
2021/08/17 01:05:02;;;;;;;4.25;2.50;;;;;;;14.46;63.80;100398.63;695373;28;22889;-65
2021/08/17 01:05:28;;;;;;;4.95;2.50;;;;;;;14.46;63.91;100408.66;694771;28;22488;-63
2021/08/17 01:05:51;;;;;;;3.67;2.42;;;;;;;14.46;63.56;100403.22;691767;28;121401;-65
2021/08/17 01:06:15;;;;;;;4.15;2.60;;;;;;;14.48;63.56;100401.13;694053;28;59603;-65
2021/08/17 01:06:37;;;;;;;4.53;2.70;;;;;;;14.48;63.44;100403.84;694385;28;22483;-65
2021/08/17 01:06:58;;;;;;;4.43;2.55;;;;;;;14.50;63.41;100402.59;695474;28;1556;-64
2021/08/17 01:07:20;;;;;;;6.05;2.78;;;;;;;14.51;63.59;100406.16;694418;28;38699;-65
2021/08/17 01:07:41;;;;;;;5.75;2.42;;;;;;;14.52;63.30;100414.09;693874;28;41962;-65
2021/08/17 01:08:02;;;;;;;3.03;2.28;;;;;;;14.53;63.56;100421.19;695104;28;21338;-65
2021/08/17 01:08:23;;;;;;;5.40;2.42;;;;;;;14.53;63.14;100418.47;696101;28;961;-65
2021/08/17 01:08:45;;;;;;;4.05;2.40;;;;;;;14.53;63.34;100410.34;694144;28;23495;-68
2021/08/17 01:09:09;;;;;;;4.35;2.45;;;;;;;14.54;63.04;100408.44;695546;28;15383;-65
2021/08/17 01:09:30;;;;;;;3.03;2.13;;;;;;;14.54;63.11;100401.13;695679;28;4606;-67
2021/08/17 01:09:52;;;;;;;4.38;2.38;;;;;;;14.55;63.11;100415.56;695261;28;21764;-66
2021/08/17 01:10:14;;;;;;;5.38;2.25;;;;;;;14.56;63.09;100415.34;693943;28;46737;-65
2021/08/17 01:10:36;;;;;;;7.07;2.50;;;;;;;14.56;63.24;100409.91;694595;28;23574;-66
2021/08/17 01:10:58;;;;;;;5.32;2.45;;;;;;;14.56;63.02;100409.91;693629;28;66772;-66
2021/08/17 01:11:19;;;;;;;5.35;2.45;;;;;;;14.57;63.18;100410.75;694199;28;44386;-65
2021/08/17 01:11:45;;;;;;;5.85;2.85;;;;;;;14.57;62.98;100417.00;695023;28;22389;-65
2021/08/17 01:12:07;;;;;;;3.93;2.70;;;;;;;14.54;63.04;100403.84;690583;28;132869;-65
2021/08/17 01:12:29;;;;;;;4.10;2.60;;;;;;;14.55;63.27;100413.66;690676;28;69710;-64
2021/08/17 01:12:50;;;;;;;4.43;2.80;;;;;;;14.51;63.29;100409.69;692773;28;45765;-64
2021/08/17 01:13:11;;;;;;;4.97;2.78;;;;;;;14.55;63.27;100408.22;695029;28;21893;-65
2021/08/17 01:13:32;;;;;;;3.42;2.40;;;;;;;14.55;63.11;100399.25;694862;28;21662;-67
2021/08/17 01:13:54;;;;;;;3.65;2.20;;;;;;;14.52;63.03;100414.09;695321;28;21537;-66
2021/08/17 01:14:18;;;;;;;3.55;2.38;;;;;;;14.48;63.02;100396.56;694332;28;47452;-65
2021/08/17 01:14:39;;;;;;;4.32;2.30;;;;;;;14.49;63.17;100416.41;693827;28;69177;-65
2021/08/17 01:15:00;;;;;;;3.20;2.60;;;;;;;14.50;63.30;100404.47;694930;28;45331;-65
2021/08/17 01:15:22;;;;;;;3.58;2.55;;;;;;;14.48;63.39;100412.84;694392;28;44438;-65
2021/08/17 01:15:43;;;;;;;3.90;2.53;;;;;;;14.49;63.01;100405.53;692975;28;46425;-65
2021/08/17 01:16:05;;;;;;;5.93;2.40;;;;;;;14.50;63.11;100413.47;693813;28;21532;-67
2021/08/17 01:16:27;;;;;;;4.43;2.55;;;;;;;14.49;63.06;100408.25;691638;28;6538;-67
2021/08/17 01:16:48;;;;;;;4.30;2.50;;;;;;;14.50;63.09;100415.34;691621;28;23097;-64
2021/08/17 01:17:09;;;;;;;2.58;2.30;;;;;;;14.49;63.08;100402.81;687555;28;45151;-64
2021/08/17 01:17:30;;;;;;;3.40;2.35;;;;;;;14.48;63.21;100409.28;689123;28;23383;-68
2021/08/17 01:17:53;;;;;;;4.40;2.50;;;;;;;14.47;63.06;100416.59;691001;28;8377;-65
2021/08/17 01:18:14;;;;;;;3.00;2.40;;;;;;;14.48;63.30;100402.00;690807;28;45191;-67
2021/08/17 01:18:35;;;;;;;3.58;2.45;;;;;;;14.49;63.32;100409.06;694700;28;24468;-67
2021/08/17 01:18:56;;;;;;;3.97;2.30;;;;;;;14.50;63.23;100399.03;694576;28;22480;-71
2021/08/17 01:19:19;;;;;;;3.22;2.13;;;;;;;14.50;63.25;100399.03;695535;28;14148;-65
2021/08/17 01:19:41;;;;;;;4.82;2.38;;;;;;;14.50;63.13;100405.31;692500;28;92376;-64
2021/08/17 01:20:03;;;;;;;4.53;2.50;;;;;;;14.50;63.31;100408.03;695087;28;1714;-65
2021/08/17 01:20:25;;;;;;;5.13;2.60;;;;;;;14.47;63.04;100389.44;694061;28;45338;-65
2021/08/17 01:20:48;;;;;;;5.32;2.42;;;;;;;14.50;63.00;100397.16;694371;28;44404;-67
2021/08/17 01:21:11;;;;;;;3.17;2.40;;;;;;;14.50;63.15;100394.44;693532;28;69463;-66
2021/08/17 01:21:33;;;;;;;4.82;2.80;;;;;;;14.52;63.32;100391.53;694566;28;45274;-66
2021/08/17 01:21:54;;;;;;;3.15;2.45;;;;;;;14.52;63.06;100402.38;694262;28;44410;-65
2021/08/17 01:22:16;;;;;;;4.68;2.58;;;;;;;14.53;63.22;100398.59;695393;28;23488;-66
2021/08/17 01:22:40;;;;;;;4.63;2.60;;;;;;;14.52;63.25;100402.38;694641;28;44397;-67
2021/08/17 01:23:01;;;;;;;4.82;2.40;;;;;;;14.50;63.27;100399.88;693127;28;90032;-68
2021/08/17 01:23:24;;;;;;;3.53;2.25;;;;;;;14.50;63.06;100396.31;695442;28;23507;-65
2021/08/17 01:23:46;;;;;;;3.50;2.35;;;;;;;14.48;63.05;100396.56;695738;28;69677;-65
2021/08/17 01:24:09;;;;;;;3.88;2.42;;;;;;;14.48;63.32;100398.41;696869;28;45241;-66
2021/08/17 01:24:30;;;;;;;5.32;2.47;;;;;;;14.48;63.15;100393.84;696281;28;69243;-65
2021/08/17 01:24:51;;;;;;;6.55;2.63;;;;;;;14.47;63.27;100396.75;698128;28;19331;-65
2021/08/17 01:25:14;;;;;;;5.32;2.63;;;;;;;14.49;63.09;100397.38;698320;28;7789;-65
2021/08/17 01:25:40;;;;;;;3.95;2.42;;;;;;;14.48;63.08;100390.25;692879;28;68695;-67
2021/08/17 01:26:01;;;;;;;3.78;2.47;;;;;;;14.44;63.20;100392.56;691244;28;137858;-66
2021/08/17 01:26:22;;;;;;;4.80;2.60;;;;;;;14.48;63.12;100391.13;695393;28;18880;-65
2021/08/17 01:26:44;;;;;;;5.25;2.60;;;;;;;14.49;63.16;100402.81;691976;28;23434;-65
2021/08/17 01:27:05;;;;;;;5.00;2.60;;;;;;;14.48;63.10;100409.28;690968;28;46487;-66
2021/08/17 01:27:26;;;;;;;3.58;2.47;;;;;;;14.49;63.13;100390.06;693595;28;21555;-65
2021/08/17 01:27:47;;;;;;;4.15;2.47;;;;;;;14.49;63.13;100397.38;694671;28;22402;-65
2021/08/17 01:28:09;;;;;;;4.18;2.60;;;;;;;14.48;62.86;100391.13;694989;28;23462;-65
2021/08/17 01:28:30;;;;;;;6.07;2.50;;;;;;;14.46;63.27;100393.19;691323;28;45081;-65
2021/08/17 01:28:51;;;;;;;2.90;2.22;;;;;;;14.46;63.26;100398.63;695914;28;1476;-65
2021/08/17 01:29:15;;;;;;;3.78;2.40;;;;;;;14.46;62.93;100400.50;695726;28;7611;-64
2021/08/17 01:29:36;;;;;;;4.82;2.60;;;;;;;14.46;63.12;100397.81;692340;28;92234;-64
2021/08/17 01:29:58;;;;;;;5.15;2.78;;;;;;;14.45;63.47;100394.25;695517;28;17656;-64
2021/08/17 01:30:19;;;;;;;4.07;2.40;;;;;;;14.47;63.16;100389.44;694190;28;22457;-64
2021/08/17 01:30:41;;;;;;;3.60;2.30;;;;;;;14.47;63.39;100404.91;695384;28;23481;-65
2021/08/17 01:31:04;;;;;;;4.50;2.50;;;;;;;14.47;63.54;100405.75;692495;28;69430;-66
2021/08/17 01:31:25;;;;;;;5.05;2.47;;;;;;;14.48;63.12;100404.72;693621;28;68470;-65
2021/08/17 01:31:47;;;;;;;5.75;2.50;;;;;;;14.47;63.14;100394.03;695435;28;16945;-65
2021/08/17 01:32:12;;;;;;;6.65;2.42;;;;;;;14.47;63.05;100394.03;695240;28;1924;-64
2021/08/17 01:32:33;;;;;;;5.82;2.80;;;;;;;14.46;63.43;100392.38;692054;28;113369;-69
2021/08/17 01:32:54;;;;;;;5.57;2.80;;;;;;;14.45;63.26;100398.84;695114;28;19473;-64
2021/08/17 01:33:17;;;;;;;4.18;2.55;;;;;;;14.42;63.21;100395.50;695243;28;19994;-64
2021/08/17 01:33:38;;;;;;;3.28;2.20;;;;;;;14.44;63.15;100395.28;691288;28;45363;-64
2021/08/17 01:33:59;;;;;;;5.03;2.45;;;;;;;14.45;63.43;100391.53;693148;28;22399;-72
2021/08/17 01:34:20;;;;;;;4.63;2.50;;;;;;;14.46;63.45;100389.66;694824;28;24323;-64
2021/08/17 01:34:42;;;;;;;3.83;2.72;;;;;;;14.45;63.42;100396.13;695283;28;14835;-65
2021/08/17 01:35:04;;;;;;;4.23;2.60;;;;;;;14.45;63.20;100394.25;693316;28;67484;-68
2021/08/17 01:35:25;;;;;;;5.25;2.50;;;;;;;14.46;63.31;100390.47;693920;28;44397;-65
2021/08/17 01:35:47;;;;;;;4.72;2.60;;;;;;;14.42;63.31;100381.91;694458;28;46371;-65
2021/08/17 01:36:09;;;;;;;3.75;2.50;;;;;;;14.47;63.42;100396.75;695152;28;24759;-64
2021/08/17 01:36:31;;;;;;;4.95;2.45;;;;;;;14.47;63.62;100392.16;695469;28;17971;-64
2021/08/17 01:36:52;;;;;;;3.60;2.08;;;;;;;14.49;63.34;100397.38;694550;28;45582;-66
2021/08/17 01:37:14;;;;;;;4.50;2.35;;;;;;;14.48;63.25;100402.00;695322;28;22567;-69
2021/08/17 01:37:35;;;;;;;4.75;2.50;;;;;;;14.48;63.34;100396.56;694707;28;34061;-64
2021/08/17 01:37:56;;;;;;;5.95;2.63;;;;;;;14.46;63.33;100393.19;694685;28;21637;-65
2021/08/17 01:38:17;;;;;;;7.53;2.83;;;;;;;14.45;63.35;100394.25;695064;28;23320;-63
2021/08/17 01:38:46;;;;;;;6.68;2.78;;;;;;;14.42;63.34;100392.78;693834;28;22375;-66
2021/08/17 01:39:07;;;;;;;5.75;2.50;;;;;;;14.43;63.52;100385.47;691081;28;136277;-66
2021/08/17 01:39:28;;;;;;;3.15;2.40;;;;;;;14.40;63.25;100378.59;694798;28;22622;-66
2021/08/17 01:39:59;;;;;;;5.10;2.50;;;;;;;14.40;63.41;100389.44;694257;28;23473;-66
2021/08/17 01:40:20;;;;;;;4.07;2.40;;;;;;;14.39;63.51;100395.94;689927;28;137290;-66
2021/08/17 01:40:42;;;;;;;4.38;2.20;;;;;;;14.40;63.54;100380.44;696452;28;14351;-66
2021/08/17 01:41:04;;;;;;;4.18;2.40;;;;;;;14.40;63.61;100394.03;695842;28;41565;-66
2021/08/17 01:41:25;;;;;;;7.30;2.80;;;;;;;14.39;63.56;100395.09;695627;28;44922;-66
2021/08/17 01:41:46;;;;;;;6.30;2.63;;;;;;;14.38;63.45;100380.66;696920;28;20748;-66
2021/08/17 01:42:07;;;;;;;2.63;2.03;;;;;;;14.37;63.32;100379.00;696028;28;22405;-66
2021/08/17 01:42:29;;;;;;;8.53;2.40;;;;;;;14.36;63.31;100371.06;696614;28;21435;-66
2021/08/17 01:42:51;;;;;;;4.53;2.50;;;;;;;14.34;63.44;100384.88;694180;28;55615;-66